Time;durP1;ratioP1;P1;durP2;ratioP2;P2;SDS_P1;SDS_P2;PMS_P1;PMS_P2;Temp;Humidity;BMP_temperature;BMP_pressure;BME280_temperature;BME280_humidity;BME280_pressure;Samples;Min_cycle;Max_cycle;Signal;HPM_P1;HPM_P2
2023/07/08 00:32:32;;;;;;;8.80;7.90;;;18.90;99.90;;;;;;4867524;29;20466;-94
2023/07/08 00:41:30;;;;;;;7.10;6.50;;;18.80;99.90;;;;;;5055432;22;20493;-89
2023/07/08 00:44:00;;;;;;;6.97;6.20;;;18.80;99.90;;;;;;5061551;28;20421;-89
2023/07/08 00:46:38;;;;;;;7.63;6.83;;;18.50;99.90;;;;;;5062144;28;20450;-90
2023/07/08 00:49:25;;;;;;;10.40;6.57;;;18.80;99.90;;;;;;5066911;28;20407;-89
2023/07/08 00:51:52;;;;;;;9.00;6.37;;;18.60;99.90;;;;;;5047984;28;20553;-89
2023/07/08 00:54:20;;;;;;;6.30;5.80;;;18.50;99.90;;;;;;5052518;28;20501;-89
2023/07/08 00:56:52;;;;;;;7.17;6.53;;;18.50;99.90;;;;;;5046730;28;20508;-89
2023/07/08 00:59:25;;;;;;;7.47;6.87;;;18.60;99.90;;;;;;5042635;28;20534;-89
2023/07/08 01:01:53;;;;;;;7.40;6.10;;;18.60;99.90;;;;;;5042901;28;21020;-89
2023/07/08 01:04:23;;;;;;;6.83;6.13;;;18.50;99.90;;;;;;5043241;28;20534;-89
2023/07/08 01:06:57;;;;;;;7.17;6.50;;;18.50;99.90;;;;;;5044610;28;20523;-89
2023/07/08 01:09:26;;;;;;;14.27;6.97;;;18.70;99.90;;;;;;5045798;28;20803;-87
2023/07/08 01:11:53;;;;;;;6.90;6.30;;;18.80;99.90;;;;;;5050607;28;20518;-90
2023/07/08 01:14:24;;;;;;;7.80;5.97;;;19.40;99.90;;;;;;5043052;28;20554;-89
2023/07/08 01:16:52;;;;;;;5.73;5.23;;;18.90;99.90;;;;;;5042729;28;20431;-89
2023/07/08 01:19:31;;;;;;;6.17;5.30;;;18.70;99.90;;;;;;5043210;28;20537;-89
2023/07/08 01:22:03;;;;;;;6.37;5.87;;;18.60;99.90;;;;;;5044393;28;20475;-90
2023/07/08 01:24:32;;;;;;;5.97;5.50;;;18.70;99.90;;;;;;5044903;28;20467;-89
2023/07/08 01:27:01;;;;;;;5.77;5.37;;;18.70;99.90;;;;;;5046003;28;20522;-90
2023/07/08 01:29:28;;;;;;;7.60;6.60;;;18.40;99.90;;;;;;5048772;28;20938;-88
2023/07/08 01:31:56;;;;;;;7.63;6.77;;;18.90;99.90;;;;;;5053074;28;20479;-89
2023/07/08 01:34:23;;;;;;;6.30;5.37;;;18.50;99.90;;;;;;5052627;28;20497;-89
2023/07/08 01:36:55;;;;;;;6.20;5.27;;;18.70;1.00;;;;;;5055760;28;20452;-87
2023/07/08 01:39:25;;;;;;;6.87;6.07;;;18.40;99.90;;;;;;5059011;28;20422;-85
2023/07/08 01:41:53;;;;;;;6.43;5.40;;;18.40;99.90;;;;;;5058621;28;20521;-86
2023/07/08 01:44:23;;;;;;;5.93;5.40;;;18.40;1.00;;;;;;5058788;28;20458;-86
2023/07/08 01:46:51;;;;;;;6.40;5.90;;;18.40;99.90;;;;;;5058833;28;20498;-87
2023/07/08 01:49:19;;;;;;;6.47;5.97;;;18.40;99.90;;;;;;5056583;28;20454;-89
2023/07/08 01:51:48;;;;;;;7.13;6.10;;;18.30;99.90;;;;;;5053416;28;20553;-89
2023/07/08 01:54:15;;;;;;;5.87;5.37;;;19.40;99.90;;;;;;5051746;28;20462;-89
2023/07/08 01:56:43;;;;;;;5.90;5.30;;;18.30;99.90;;;;;;5051601;28;20447;-89
2023/07/08 01:59:10;;;;;;;6.30;5.70;;;18.50;99.90;;;;;;5057213;28;20455;-88
2023/07/08 02:01:37;;;;;;;7.90;5.77;;;18.30;99.90;;;;;;5053751;28;20474;-88
2023/07/08 02:04:04;;;;;;;6.67;6.07;;;18.30;1.00;;;;;;5054132;28;20506;-88
2023/07/08 02:06:31;;;;;;;9.40;6.00;;;18.50;99.90;;;;;;5049072;28;20453;-90
2023/07/08 02:08:58;;;;;;;5.50;5.10;;;18.40;99.90;;;;;;5046692;28;20464;-91
2023/07/08 02:11:26;;;;;;;5.87;5.37;;;18.50;99.90;;;;;;5042501;28;20459;-90
2023/07/08 02:13:54;;;;;;;6.37;5.87;;;18.40;99.90;;;;;;5044167;28;20487;-90
2023/07/08 02:16:21;;;;;;;9.87;5.47;;;18.30;99.90;;;;;;5049161;28;20453;-90
2023/07/08 02:18:48;;;;;;;6.13;5.53;;;18.30;99.90;;;;;;5045809;28;20481;-90
2023/07/08 02:21:17;;;;;;;6.53;5.87;;;18.50;1.00;;;;;;5048436;28;20501;-88
2023/07/08 02:23:45;;;;;;;6.67;6.00;;;18.20;99.90;;;;;;5053236;28;20451;-90
2023/07/08 02:26:12;;;;;;;5.97;5.43;;;18.30;99.90;;;;;;5062387;28;20434;-87
2023/07/08 02:28:39;;;;;;;5.60;5.10;;;18.20;99.90;;;;;;5053836;28;20514;-90
2023/07/08 02:31:07;;;;;;;5.53;5.00;;;18.20;99.90;;;;;;5044580;28;20476;-90
2023/07/08 02:33:34;;;;;;;6.33;5.73;;;18.10;99.90;;;;;;5045650;28;20460;-89
2023/07/08 02:36:01;;;;;;;6.40;5.80;;;18.00;99.90;;;;;;5043526;28;20446;-89
2023/07/08 02:38:28;;;;;;;6.67;6.00;;;18.10;99.90;;;;;;5043190;28;20955;-90
2023/07/08 02:40:54;;;;;;;6.90;6.27;;;18.20;99.90;;;;;;5049242;28;20473;-88
2023/07/08 02:43:21;;;;;;;6.97;6.27;;;18.10;99.90;;;;;;5056840;28;20450;-91
2023/07/08 02:45:50;;;;;;;6.63;6.10;;;18.00;99.90;;;;;;5047096;28;20445;-92
2023/07/08 02:48:20;;;;;;;6.63;5.57;;;17.90;1.00;;;;;;5048859;28;20457;-91
2023/07/08 02:50:47;;;;;;;6.00;5.50;;;17.90;99.90;;;;;;5051683;28;20466;-91
2023/07/08 02:53:14;;;;;;;6.10;5.70;;;18.10;99.90;;;;;;5050808;28;20511;-90
2023/07/08 02:55:42;;;;;;;7.10;6.50;;;17.90;99.90;;;;;;5043343;28;20490;-90
2023/07/08 02:58:09;;;;;;;7.03;6.50;;;17.90;99.90;;;;;;5042589;28;20460;-90
2023/07/08 03:00:37;;;;;;;6.60;5.97;;;17.80;99.90;;;;;;5045006;28;20492;-89
2023/07/08 03:03:04;;;;;;;7.00;6.40;;;17.80;99.90;;;;;;5051787;28;20489;-89
2023/07/08 03:05:32;;;;;;;6.67;6.00;;;17.70;99.90;;;;;;5044829;28;20473;-89
2023/07/08 03:07:59;;;;;;;8.03;6.50;;;17.70;99.90;;;;;;5043934;28;20453;-89
2023/07/08 03:10:26;;;;;;;6.77;6.17;;;17.70;99.90;;;;;;5054644;28;20476;-89
2023/07/08 03:12:53;;;;;;;8.50;6.63;;;17.40;99.90;;;;;;5043718;28;20450;-89
2023/07/08 03:15:20;;;;;;;6.40;5.80;;;17.30;1.00;;;;;;5061234;28;20497;-88
2023/07/08 03:17:47;;;;;;;6.80;6.20;;;17.50;99.90;;;;;;5061303;28;20468;-88
2023/07/08 03:20:14;;;;;;;8.27;7.47;;;17.50;99.90;;;;;;5044260;28;20545;-89
2023/07/08 03:22:42;;;;;;;8.40;6.30;;;17.50;99.90;;;;;;5042737;28;20460;-89
2023/07/08 03:25:09;;;;;;;6.97;6.27;;;17.40;99.90;;;;;;5042247;28;20474;-89
2023/07/08 03:27:36;;;;;;;7.17;6.47;;;17.40;99.90;;;;;;5051938;28;20454;-89
2023/07/08 03:30:05;;;;;;;6.97;6.37;;;17.60;99.90;;;;;;5043450;28;20908;-89
2023/07/08 03:32:32;;;;;;;7.57;6.60;;;17.60;99.90;;;;;;5043573;28;20888;-89
2023/07/08 03:34:58;;;;;;;6.80;5.63;;;17.50;99.90;;;;;;5041319;28;20518;-89
2023/07/08 03:37:25;;;;;;;7.20;6.50;;;18.00;99.90;;;;;;5041242;28;20442;-89
2023/07/08 03:39:53;;;;;;;7.03;6.13;;;17.40;1.00;;;;;;5041606;28;20454;-89
2023/07/08 03:42:20;;;;;;;6.40;5.77;;;17.90;99.90;;;;;;5041352;28;20824;-89
2023/07/08 03:44:47;;;;;;;6.57;6.03;;;17.70;99.90;;;;;;5041115;28;20530;-89
2023/07/08 03:47:14;;;;;;;6.73;6.10;;;17.70;99.90;;;;;;5042910;28;20542;-89
2023/07/08 03:49:41;;;;;;;7.27;5.27;;;18.00;1.00;;;;;;5043294;28;20463;-89
2023/07/08 03:52:15;;;;;;;7.27;6.53;;;17.80;99.90;;;;;;5041636;28;20545;-89
2023/07/08 03:54:42;;;;;;;7.33;5.70;;;18.10;99.90;;;;;;5042015;28;20986;-89
2023/07/08 03:57:11;;;;;;;6.30;5.70;;;18.40;99.90;;;;;;5041144;28;20446;-89
2023/07/08 03:59:37;;;;;;;6.33;5.83;;;18.40;1.00;;;;;;5041821;28;20514;-89
2023/07/08 04:02:05;;;;;;;9.17;5.83;;;18.10;99.90;;;;;;5044718;28;20457;-89
2023/07/08 04:04:32;;;;;;;6.33;5.83;;;18.20;99.90;;;;;;5044394;28;20496;-89
2023/07/08 04:06:59;;;;;;;6.53;5.93;;;;;;;;;;5050422;28;20452;-88
2023/07/08 04:09:25;;;;;;;5.63;5.20;;;18.30;99.90;;;;;;5044976;28;20537;-90
2023/07/08 04:11:53;;;;;;;8.80;6.10;;;;;;;;;;5045453;28;20482;-88
2023/07/08 04:14:21;;;;;;;6.00;5.50;;;18.30;99.90;;;;;;5044597;28;20469;-89
2023/07/08 04:16:53;;;;;;;7.47;6.77;;;18.40;99.90;;;;;;5045209;28;20458;-89
2023/07/08 04:19:20;;;;;;;6.03;5.63;;;18.40;99.90;;;;;;5055021;28;20435;-85
2023/07/08 04:21:47;;;;;;;6.53;6.03;;;18.60;99.90;;;;;;5059966;28;20475;-86
2023/07/08 04:24:15;;;;;;;6.90;6.30;;;18.50;99.90;;;;;;5060072;28;20446;-85
2023/07/08 04:26:43;;;;;;;5.80;5.30;;;18.50;99.90;;;;;;5060214;28;20494;-88
2023/07/08 04:29:13;;;;;;;7.20;6.03;;;18.70;99.90;;;;;;5054520;28;20469;-89
2023/07/08 04:31:41;;;;;;;6.73;6.03;;;18.60;99.90;;;;;;5047453;28;20539;-89
2023/07/08 04:34:09;;;;;;;6.50;5.90;;;18.70;99.90;;;;;;5056498;28;20446;-87
2023/07/08 04:36:36;;;;;;;6.87;6.17;;;18.80;99.90;;;;;;5051875;28;20463;-89
2023/07/08 04:39:04;;;;;;;7.20;6.50;;;18.60;99.90;;;;;;5043454;28;20475;-89
2023/07/08 04:41:31;;;;;;;6.77;6.13;;;18.80;99.90;;;;;;5042966;28;20538;-89
2023/07/08 04:44:02;;;;;;;6.00;5.50;;;18.90;99.90;;;;;;5054728;28;20462;-87
2023/07/08 04:46:37;;;;;;;9.90;6.30;;;18.90;99.90;;;;;;5055347;28;20433;-89
2023/07/08 04:49:06;;;;;;;6.40;5.80;;;18.90;99.90;;;;;;5048518;28;20481;-88
2023/07/08 04:51:33;;;;;;;8.20;6.00;;;18.90;99.90;;;;;;5047042;28;20458;-89
2023/07/08 04:54:00;;;;;;;6.97;6.27;;;18.90;99.90;;;;;;5044835;28;20518;-90
2023/07/08 04:56:37;;;;;;;6.50;5.90;;;18.90;99.90;;;;;;5042127;28;20485;-88
2023/07/08 04:59:04;;;;;;;8.60;6.33;;;;;;;;;;5043514;28;20465;-89
2023/07/08 05:01:31;;;;;;;8.90;7.00;;;19.00;99.90;;;;;;5042965;28;20467;-89
2023/07/08 05:03:57;;;;;;;6.77;6.07;;;19.00;99.90;;;;;;5042542;28;20455;-89
2023/07/08 05:06:26;;;;;;;8.60;5.30;;;18.90;99.90;;;;;;5042410;28;20473;-89
2023/07/08 05:08:53;;;;;;;9.10;7.17;;;19.10;1.00;;;;;;5043036;28;20455;-89
2023/07/08 05:11:19;;;;;;;6.43;5.80;;;19.20;99.90;;;;;;5050498;28;20512;-90
2023/07/08 05:13:46;;;;;;;7.23;6.63;;;19.50;1.00;;;;;;5049451;28;20453;-90
2023/07/08 05:16:13;;;;;;;7.00;6.07;;;19.20;99.90;;;;;;5043896;28;20919;-90
2023/07/08 05:18:40;;;;;;;7.10;6.40;;;19.30;99.90;;;;;;5041545;28;20454;-89
2023/07/08 05:21:08;;;;;;;6.97;6.37;;;19.40;99.90;;;;;;5042356;28;20466;-89
2023/07/08 05:23:36;;;;;;;6.43;5.83;;;19.50;99.90;;;;;;5041235;28;20454;-89
2023/07/08 05:26:04;;;;;;;8.20;6.57;;;19.50;99.90;;;;;;5042760;28;20485;-88
2023/07/08 05:28:31;;;;;;;8.20;7.40;;;19.50;99.90;;;;;;5053253;28;20470;-90
2023/07/08 05:30:58;;;;;;;7.30;6.60;;;19.70;99.90;;;;;;5039838;28;20462;-90
2023/07/08 05:33:27;;;;;;;6.77;6.07;;;19.80;99.90;;;;;;5040940;28;20437;-90
2023/07/08 05:35:55;;;;;;;6.10;5.60;;;20.10;99.90;;;;;;5040698;28;20482;-90
2023/07/08 05:38:22;;;;;;;9.30;6.57;;;19.90;99.90;;;;;;5041248;28;20485;-89
2023/07/08 05:40:51;;;;;;;6.33;5.90;;;19.90;99.90;;;;;;5040478;28;21028;-90
2023/07/08 05:43:18;;;;;;;8.03;6.90;;;20.10;99.90;;;;;;5040379;28;20474;-89
2023/07/08 05:45:47;;;;;;;5.57;5.17;;;20.20;99.90;;;;;;5040319;28;20890;-89
2023/07/08 05:48:15;;;;;;;6.50;6.00;;;20.40;99.90;;;;;;5040598;28;20473;-90
2023/07/08 05:50:42;;;;;;;6.80;6.00;;;20.40;99.90;;;;;;5040087;28;20467;-90
2023/07/08 05:53:11;;;;;;;6.13;5.60;;;20.50;99.90;;;;;;5041234;28;20461;-90
2023/07/08 05:55:38;;;;;;;6.40;5.80;;;20.60;1.00;;;;;;5040600;28;20483;-89
2023/07/08 05:58:06;;;;;;;5.87;5.37;;;20.90;99.90;;;;;;5040202;28;20446;-90
2023/07/08 06:00:33;;;;;;;7.77;7.00;;;20.80;99.90;;;;;;5045918;28;20455;-90
2023/07/08 06:03:00;;;;;;;12.67;11.47;;;20.90;1.00;;;;;;5053341;28;20525;-88
2023/07/08 06:05:27;;;;;;;11.40;10.30;;;20.90;99.90;;;;;;5049645;28;20481;-89
2023/07/08 06:07:53;;;;;;;8.90;7.47;;;21.00;1.00;;;;;;5058247;28;20501;-90
2023/07/08 06:10:21;;;;;;;8.40;7.70;;;;;;;;;;5058411;28;20520;-88
2023/07/08 06:12:47;;;;;;;7.40;6.70;;;21.10;99.90;;;;;;5051655;28;20516;-89
2023/07/08 06:15:16;;;;;;;9.37;7.70;;;21.10;1.00;;;;;;5043525;28;20536;-89
2023/07/08 06:17:43;;;;;;;6.20;5.70;;;21.20;99.90;;;;;;5051963;28;20436;-89
2023/07/08 06:20:10;;;;;;;5.70;5.17;;;21.30;1.00;;;;;;5058147;28;20461;-87
2023/07/08 06:22:37;;;;;;;7.07;6.37;;;21.30;1.00;;;;;;5054632;28;20446;-89
2023/07/08 06:25:04;;;;;;;7.00;6.40;;;;;;;;;;5058259;28;20502;-86
2023/07/08 06:27:31;;;;;;;6.33;5.70;;;21.30;99.90;;;;;;5058046;28;20477;-89
2023/07/08 06:29:58;;;;;;;7.87;5.67;;;;;;;;;;5058270;28;20489;-87
2023/07/08 06:32:26;;;;;;;6.03;5.63;;;21.40;1.00;;;;;;5043397;28;20522;-89
2023/07/08 06:34:53;;;;;;;6.83;6.13;;;21.40;1.00;;;;;;5041605;28;20446;-89
2023/07/08 06:37:20;;;;;;;6.73;5.83;;;21.50;1.00;;;;;;5042483;28;20513;-90
2023/07/08 06:39:47;;;;;;;6.57;6.07;;;21.50;99.90;;;;;;5045380;28;20438;-90
2023/07/08 06:42:14;;;;;;;8.63;6.70;;;21.30;28.60;;;;;;5053435;28;20473;-93
2023/07/08 06:44:45;;;;;;;6.50;5.90;;;21.70;1.00;;;;;;5049809;28;20541;-90
2023/07/08 06:47:12;;;;;;;5.57;5.07;;;21.70;1.00;;;;;;5046321;28;20438;-90
2023/07/08 06:49:40;;;;;;;5.87;5.37;;;22.20;1.00;;;;;;5039745;28;20540;-90
2023/07/08 06:52:08;;;;;;;6.70;6.10;;;22.90;1.00;;;;;;5040608;28;20455;-89
2023/07/08 06:54:35;;;;;;;6.20;5.60;;;22.10;1.00;;;;;;5040178;28;20962;-90
2023/07/08 06:57:06;;;;;;;6.43;5.83;;;22.10;1.00;;;;;;5039141;28;20560;-90
2023/07/08 06:59:33;;;;;;;7.10;6.53;;;;;;;;;;5040371;28;20465;-89
2023/07/08 07:02:01;;;;;;;5.63;5.23;;;;;;;;;;5044429;28;20481;-91
2023/07/08 07:04:30;;;;;;;7.40;6.80;;;;;;;;;;5050421;28;20477;-91
2023/07/08 07:07:01;;;;;;;7.60;7.00;;;22.40;1.00;;;;;;5057583;28;20462;-90
2023/07/08 07:09:27;;;;;;;10.03;6.10;;;22.40;1.00;;;;;;5051375;28;20442;-90
2023/07/08 07:11:54;;;;;;;7.43;6.37;;;22.40;1.00;;;;;;5046473;28;20898;-91
2023/07/08 07:14:21;;;;;;;5.33;4.93;;;22.50;99.90;;;;;;5048564;28;20466;-89
2023/07/08 07:16:48;;;;;;;6.17;5.57;;;22.30;1.00;;;;;;5053505;28;20905;-89
2023/07/08 07:19:15;;;;;;;5.80;5.40;;;22.70;1.00;;;;;;5049640;28;20457;-90
2023/07/08 07:21:42;;;;;;;6.13;5.63;;;22.80;99.90;;;;;;5051224;28;20506;-90
2023/07/08 07:27:12;;;;;;;6.13;5.57;;;;;;;;;;5042073;28;20480;-89
2023/07/08 07:29:45;;;;;;;5.73;5.33;;;23.30;1.00;;;;;;5043126;28;20500;-90
2023/07/08 07:32:12;;;;;;;5.43;4.93;;;23.10;99.90;;;;;;5043586;28;20772;-89
2023/07/08 07:34:40;;;;;;;5.37;4.97;;;;;;;;;;5043338;28;20442;-90
2023/07/08 07:37:08;;;;;;;6.77;6.17;;;;;;;;;;5042167;28;21031;-90
2023/07/08 07:39:36;;;;;;;6.50;5.50;;;23.30;99.90;;;;;;5048996;28;20442;-88
2023/07/08 07:42:03;;;;;;;11.40;6.33;;;23.40;1.00;;;;;;5048433;28;20954;-90
2023/07/08 07:44:30;;;;;;;7.63;5.20;;;23.40;99.90;;;;;;5059563;28;20477;-90
2023/07/08 07:46:57;;;;;;;5.87;5.40;;;23.50;99.90;;;;;;5047245;28;20434;-89
2023/07/08 07:49:24;;;;;;;5.60;5.20;;;22.40;99.90;;;;;;5045439;28;20458;-89
2023/07/08 07:51:51;;;;;;;5.27;4.80;;;23.60;99.90;;;;;;5045331;28;20463;-90
2023/07/08 07:54:18;;;;;;;5.70;4.93;;;23.70;99.90;;;;;;5044438;28;20977;-90
2023/07/08 07:56:46;;;;;;;5.93;5.43;;;23.50;99.90;;;;;;5044314;28;20478;-90
2023/07/08 07:59:13;;;;;;;7.03;5.10;;;;;;;;;;5045398;28;20454;-89
2023/07/08 08:01:42;;;;;;;6.40;5.80;;;24.20;1.00;;;;;;5046784;28;20467;-89
2023/07/08 08:04:11;;;;;;;7.07;5.37;;;23.90;99.90;;;;;;5043092;28;20462;-89
2023/07/08 08:06:39;;;;;;;6.33;4.80;;;;;;;;;;5043981;28;20511;-88
2023/07/08 08:09:07;;;;;;;7.07;5.10;;;24.00;99.90;;;;;;5045519;28;20442;-89
2023/07/08 08:11:35;;;;;;;5.13;4.73;;;;;;;;;;5052034;28;20458;-90
2023/07/08 08:14:05;;;;;;;6.70;4.97;;;24.30;99.90;;;;;;5050889;28;20833;-90
2023/07/08 08:16:32;;;;;;;5.70;5.13;;;24.20;99.90;;;;;;5051460;28;20489;-90
2023/07/08 08:18:59;;;;;;;6.20;4.97;;;;;;;;;;5044430;28;20446;-90
2023/07/08 08:21:27;;;;;;;5.27;4.77;;;;;;;;;;5041097;28;20502;-90
2023/07/08 08:23:54;;;;;;;4.90;4.30;;;25.00;1.00;;;;;;5054462;28;20435;-92
2023/07/08 08:26:21;;;;;;;6.03;5.53;;;24.60;99.90;;;;;;5059535;28;20426;-90
2023/07/08 08:28:48;;;;;;;6.03;5.63;;;25.00;1.00;;;;;;5059395;28;20450;-91
2023/07/08 08:31:16;;;;;;;5.50;5.10;;;24.70;99.90;;;;;;5059590;28;20450;-90
2023/07/08 08:33:43;;;;;;;4.60;4.30;;;24.70;99.90;;;;;;5046036;28;20454;-90
2023/07/08 08:36:10;;;;;;;5.17;4.67;;;24.70;99.90;;;;;;5043306;28;20502;-89
2023/07/08 08:38:36;;;;;;;6.13;5.63;;;24.80;99.90;;;;;;5040911;28;20510;-90
2023/07/08 08:41:13;;;;;;;4.67;4.33;;;24.90;99.90;;;;;;5055912;28;20513;-90
2023/07/08 08:43:42;;;;;;;6.10;5.50;;;24.90;99.90;;;;;;5041132;28;20473;-90
2023/07/08 08:46:15;;;;;;;5.27;4.87;;;24.90;99.90;;;;;;5040388;28;20443;-89
2023/07/08 08:48:52;;;;;;;5.07;4.60;;;25.10;99.90;;;;;;5052346;28;20407;-92
2023/07/08 08:51:19;;;;;;;5.07;4.67;;;25.10;99.90;;;;;;5056518;28;20489;-89
2023/07/08 08:53:46;;;;;;;5.37;4.80;;;25.20;99.90;;;;;;5044988;28;20538;-89
2023/07/08 08:56:27;;;;;;;6.70;5.13;;;25.30;99.90;;;;;;5040721;28;20482;-89
2023/07/08 08:58:59;;;;;;;6.10;5.47;;;25.30;99.90;;;;;;5040960;28;20473;-90
2023/07/08 09:01:27;;;;;;;5.53;5.07;;;25.40;99.90;;;;;;5044936;28;20554;-89
2023/07/08 09:04:00;;;;;;;5.77;5.37;;;25.40;99.90;;;;;;5041396;28;20443;-89
2023/07/08 09:06:29;;;;;;;5.90;4.70;;;25.50;99.90;;;;;;5044416;28;20435;-90
2023/07/08 09:09:01;;;;;;;5.40;4.90;;;25.50;99.90;;;;;;5043488;28;20443;-90
2023/07/08 09:11:41;;;;;;;4.93;4.53;;;25.60;99.90;;;;;;5044521;28;20475;-90
2023/07/08 09:14:15;;;;;;;4.70;4.30;;;25.60;99.90;;;;;;5049678;28;20442;-90
2023/07/08 09:16:50;;;;;;;7.00;4.60;;;26.00;1.00;;;;;;5042697;28;21025;-90
2023/07/08 09:19:25;;;;;;;4.87;4.43;;;25.80;99.90;;;;;;5049363;28;20461;-90
2023/07/08 09:21:58;;;;;;;5.17;4.67;;;25.90;99.90;;;;;;5058741;28;20457;-91
2023/07/08 09:24:32;;;;;;;5.10;4.67;;;26.00;99.90;;;;;;5052905;28;20450;-90
2023/07/08 09:27:02;;;;;;;6.70;4.67;;;25.90;99.90;;;;;;5043477;28;20467;-90
2023/07/08 09:29:32;;;;;;;3.67;3.37;;;;;;;;;;5049535;28;20554;-89
2023/07/08 09:31:59;;;;;;;5.43;3.77;;;;;;;;;;5049863;28;20475;-89
2023/07/08 09:34:43;;;;;;;4.17;3.77;;;26.30;99.90;;;;;;5058017;28;20441;-90
2023/07/08 09:37:27;;;;;;;6.27;3.90;;;26.30;99.90;;;;;;5055642;28;20489;-91
2023/07/08 09:39:55;;;;;;;4.47;4.13;;;26.60;1.00;;;;;;5043847;28;20454;-91
2023/07/08 09:42:26;;;;;;;4.20;3.90;;;26.40;99.90;;;;;;5040783;28;20496;-91
2023/07/08 09:44:57;;;;;;;4.27;3.87;;;26.40;99.90;;;;;;5043165;28;20452;-89
2023/07/08 09:47:28;;;;;;;4.17;3.53;;;26.50;99.90;;;;;;5043372;28;20435;-89
2023/07/08 09:49:58;;;;;;;4.30;3.60;;;26.60;1.00;;;;;;5050711;28;20435;-90
2023/07/08 09:52:25;;;;;;;4.23;3.80;;;25.90;1.00;;;;;;5041982;28;20461;-89
2023/07/08 09:54:52;;;;;;;3.87;3.47;;;26.50;99.90;;;;;;5040724;28;20450;-90
2023/07/08 09:57:27;;;;;;;5.33;4.43;;;26.00;99.90;;;;;;5049283;28;20474;-91
2023/07/08 09:59:58;;;;;;;4.60;4.20;;;26.20;1.00;;;;;;5046106;28;20435;-90
2023/07/08 10:02:32;;;;;;;4.27;3.90;;;26.60;99.90;;;;;;5047654;28;20927;-89
2023/07/08 10:05:06;;;;;;;3.77;3.50;;;26.60;99.90;;;;;;5046256;28;20489;-89
2023/07/08 10:07:33;;;;;;;3.73;3.43;;;26.70;99.90;;;;;;5044868;28;20446;-90
2023/07/08 10:10:03;;;;;;;3.50;3.20;;;26.70;99.90;;;;;;5047240;28;20471;-90
2023/07/08 10:12:32;;;;;;;4.17;3.87;;;26.80;99.90;;;;;;5046942;28;20495;-89
2023/07/08 10:15:03;;;;;;;3.40;3.10;;;26.80;99.90;;;;;;5042937;28;20516;-90
2023/07/08 10:17:33;;;;;;;3.90;3.53;;;26.80;99.90;;;;;;5041756;28;20558;-90
2023/07/08 10:20:02;;;;;;;4.37;3.57;;;26.80;99.90;;;;;;5040807;28;20474;-90
2023/07/08 10:22:42;;;;;;;3.40;3.20;;;26.80;99.90;;;;;;5040607;28;20477;-90
2023/07/08 10:25:23;;;;;;;3.70;3.50;;;26.90;99.90;;;;;;5047908;28;20434;-89
2023/07/08 10:27:58;;;;;;;4.27;3.97;;;27.00;99.90;;;;;;5043365;28;20425;-90
2023/07/08 10:30:28;;;;;;;5.50;4.50;;;27.50;1.00;;;;;;5041800;28;20516;-90
2023/07/08 10:33:38;;;;;;;8.30;3.90;;;27.10;99.90;;;;;;5039884;28;20442;-90
2023/07/08 10:36:20;;;;;;;4.03;3.73;;;27.10;99.90;;;;;;5042945;28;20935;-89
2023/07/08 10:38:58;;;;;;;5.90;4.13;;;27.10;99.90;;;;;;5044303;28;20450;-89
2023/07/08 10:41:35;;;;;;;3.90;3.60;;;26.80;1.00;;;;;;5061160;28;20470;-91
2023/07/08 10:44:08;;;;;;;4.00;3.70;;;27.20;99.90;;;;;;5061135;28;20414;-91
2023/07/08 10:46:49;;;;;;;10.33;5.00;;;27.50;1.00;;;;;;5061339;28;20506;-92
2023/07/08 10:49:36;;;;;;;4.00;3.70;;;27.20;99.90;;;;;;5059824;28;20431;-91
2023/07/08 10:52:19;;;;;;;4.30;3.90;;;27.30;99.90;;;;;;5055724;28;20438;-90
2023/07/08 10:55:01;;;;;;;3.40;3.20;;;27.20;99.90;;;;;;5050571;28;20431;-91
2023/07/08 10:57:46;;;;;;;4.73;4.33;;;27.20;99.90;;;;;;5055974;28;20478;-91
2023/07/08 11:00:25;;;;;;;4.27;3.97;;;27.10;99.90;;;;;;5061113;28;20451;-90
2023/07/08 11:03:32;;;;;;;3.77;3.47;;;27.10;99.90;;;;;;5050762;28;20411;-91
2023/07/08 11:06:03;;;;;;;4.50;4.20;;;27.20;99.90;;;;;;5045889;28;20450;-91
2023/07/08 11:08:37;;;;;;;5.40;3.83;;;27.40;99.90;;;;;;5056962;28;20469;-90
2023/07/08 11:11:09;;;;;;;4.73;4.33;;;27.50;99.90;;;;;;5052381;28;20474;-91
2023/07/08 11:13:44;;;;;;;9.33;7.73;;;27.60;99.90;;;;;;5058074;28;20457;-90
2023/07/08 11:16:17;;;;;;;4.97;4.57;;;27.60;99.90;;;;;;5047748;28;20429;-91
2023/07/08 11:18:52;;;;;;;4.30;3.87;;;27.70;99.90;;;;;;5047610;28;20404;-91
2023/07/08 11:21:24;;;;;;;5.13;4.63;;;27.70;99.90;;;;;;5049723;28;20481;-90
2023/07/08 11:24:01;;;;;;;6.30;5.43;;;27.80;99.90;;;;;;5047222;28;20807;-91
2023/07/08 11:26:33;;;;;;;4.60;4.20;;;27.80;99.90;;;;;;5045693;28;20454;-92
2023/07/08 11:29:03;;;;;;;4.40;4.10;;;27.90;99.90;;;;;;5046776;28;20450;-90
2023/07/08 11:31:35;;;;;;;5.00;4.60;;;27.90;99.90;;;;;;5045033;28;20470;-91
2023/07/08 11:34:04;;;;;;;4.17;3.87;;;27.90;99.90;;;;;;5045717;28;20820;-91
2023/07/08 11:36:33;;;;;;;5.60;5.10;;;;;;;;;;5052793;28;20443;-90
2023/07/08 11:39:02;;;;;;;6.10;5.00;;;27.90;99.90;;;;;;5057165;28;20446;-90
2023/07/08 11:41:32;;;;;;;4.30;4.00;;;28.00;99.90;;;;;;5053250;28;20456;-89
2023/07/08 11:44:03;;;;;;;7.43;4.73;;;28.10;99.90;;;;;;5060392;28;20419;-92
2023/07/08 11:46:34;;;;;;;5.13;4.73;;;28.10;99.90;;;;;;5060359;28;20411;-91
2023/07/08 11:49:05;;;;;;;4.87;4.47;;;28.10;99.90;;;;;;5053992;28;20773;-90
2023/07/08 11:51:36;;;;;;;8.47;3.87;;;28.10;99.90;;;;;;5046296;28;20446;-90
2023/07/08 11:54:13;;;;;;;5.70;4.13;;;28.10;99.90;;;;;;5046441;28;20431;-90
2023/07/08 11:56:50;;;;;;;4.37;3.97;;;28.10;99.90;;;;;;5045380;28;20458;-90
2023/07/08 11:59:20;;;;;;;3.87;3.57;;;28.10;99.90;;;;;;5043422;28;20427;-90
2023/07/08 12:01:53;;;;;;;4.27;3.87;;;28.20;99.90;;;;;;5040868;28;20479;-89
2023/07/08 12:04:30;;;;;;;4.73;3.80;;;28.20;99.90;;;;;;5056758;28;20438;-90
2023/07/08 12:07:17;;;;;;;4.60;4.27;;;28.00;1.00;;;;;;5057779;28;20438;-90
2023/07/08 12:09:59;;;;;;;4.23;3.20;;;28.30;1.00;;;;;;5058918;28;20426;-90
2023/07/08 12:12:31;;;;;;;3.90;3.70;;;28.50;1.00;;;;;;5050614;28;20438;-91
2023/07/08 12:15:09;;;;;;;4.80;4.20;;;28.30;99.90;;;;;;5050177;28;20471;-91
2023/07/08 12:17:37;;;;;;;4.20;3.90;;;;;;;;;;5051328;28;20477;-89
2023/07/08 12:20:13;;;;;;;4.60;4.20;;;28.30;99.90;;;;;;5053684;28;20463;-91
2023/07/08 12:22:40;;;;;;;5.03;4.20;;;;;;;;;;5059933;28;20433;-91
2023/07/08 12:25:16;;;;;;;4.60;4.20;;;28.30;99.90;;;;;;5055213;28;20435;-90
2023/07/08 12:27:43;;;;;;;8.00;3.80;;;;;;;;;;5047748;28;20446;-89
2023/07/08 12:30:12;;;;;;;3.97;3.67;;;28.00;1.00;;;;;;5052393;28;20474;-89
2023/07/08 12:32:40;;;;;;;4.57;4.17;;;28.30;99.90;;;;;;5045574;28;20449;-89
2023/07/08 12:35:18;;;;;;;6.23;4.30;;;28.50;1.00;;;;;;5049773;28;20441;-91
2023/07/08 12:37:47;;;;;;;7.73;7.03;;;28.30;99.90;;;;;;5045274;28;20477;-91
2023/07/08 12:42:55;;;;;;;4.43;4.03;;;28.40;99.90;;;;;;5059665;28;20480;-90
2023/07/08 12:45:33;;;;;;;4.23;3.93;;;28.50;99.90;;;;;;5067056;28;20943;-89
2023/07/08 12:48:06;;;;;;;5.27;4.57;;;;;;;;;;5071952;28;20441;-89
2023/07/08 12:50:34;;;;;;;4.17;3.83;;;;;;;;;;5055353;28;20470;-89
2023/07/08 12:53:23;;;;;;;4.20;3.87;;;28.60;99.90;;;;;;5039934;28;20463;-89
2023/07/08 12:56:12;;;;;;;4.53;4.23;;;28.30;1.00;;;;;;5043285;28;20950;-90
2023/07/08 12:58:46;;;;;;;6.00;3.80;;;28.60;99.90;;;;;;5040964;28;20990;-88
2023/07/08 13:01:22;;;;;;;5.03;4.63;;;28.60;99.90;;;;;;5042245;28;20471;-88
2023/07/08 13:10:15;;;;;;;5.40;5.00;;;28.70;99.90;;;;;;4997739;28;20441;-89
2023/07/08 13:12:49;;;;;;;5.20;4.70;;;28.70;99.90;;;;;;5042662;28;20450;-89
2023/07/08 13:15:39;;;;;;;4.30;4.00;;;28.70;99.90;;;;;;5058215;28;20490;-89
2023/07/08 13:18:31;;;;;;;;;;;;;;;;;;;;;
2023/07/08 13:21:01;;;;;;;4.53;4.10;;;28.90;99.90;;;;;;5058826;28;20466;-89
2023/07/08 13:23:38;;;;;;;7.07;6.37;;;28.50;1.00;;;;;;5058811;28;20445;-88
2023/07/08 13:26:15;;;;;;;5.30;4.73;;;30.50;99.90;;;;;;5058597;28;20457;-88
2023/07/08 13:28:48;;;;;;;3.90;3.60;;;28.90;99.90;;;;;;5058459;28;20533;-88
2023/07/08 13:31:24;;;;;;;5.10;4.70;;;28.90;99.90;;;;;;5058777;28;20455;-89
2023/07/08 13:33:57;;;;;;;4.50;4.10;;;29.10;99.90;;;;;;5048401;28;20496;-90
2023/07/08 13:36:40;;;;;;;5.97;5.37;;;29.20;99.90;;;;;;5038857;28;20446;-90
2023/07/08 13:39:11;;;;;;;8.80;4.10;;;29.10;99.90;;;;;;5038482;28;20501;-90
2023/07/08 13:41:57;;;;;;;5.03;4.50;;;29.00;99.90;;;;;;5038655;28;20513;-89
2023/07/08 13:44:27;;;;;;;4.70;4.27;;;;;;;;;;5058522;28;20434;-89
2023/07/08 13:47:05;;;;;;;4.70;4.40;;;29.00;99.90;;;;;;5057775;28;20430;-89
2023/07/08 13:49:46;;;;;;;5.47;4.97;;;29.00;99.90;;;;;;5039868;28;20498;-89
2023/07/08 13:52:22;;;;;;;4.60;4.17;;;29.00;99.90;;;;;;5057947;28;20445;-89
2023/07/08 13:54:56;;;;;;;4.43;4.03;;;28.90;99.90;;;;;;5058469;28;20457;-89
2023/07/08 13:57:38;;;;;;;5.17;4.67;;;29.00;99.90;;;;;;5056658;28;20489;-90
2023/07/08 14:00:10;;;;;;;4.27;3.87;;;29.00;99.90;;;;;;5057844;28;20435;-89
2023/07/08 14:02:43;;;;;;;4.50;4.10;;;29.10;99.90;;;;;;5057879;28;20435;-90
2023/07/08 14:05:13;;;;;;;4.63;4.10;;;29.10;99.90;;;;;;5057653;28;20526;-89